createdAt,value
2023-03-11T00:07:17.026Z,1.67
2023-03-11T00:17:38.772Z,1.68
2023-03-11T00:28:00.731Z,1.67
2023-03-11T00:38:22.501Z,1.63
2023-03-11T00:48:43.866Z,1.70
2023-03-11T00:59:05.217Z,1.70
2023-03-11T01:09:26.579Z,1.69
2023-03-11T01:19:48.365Z,1.63
2023-03-11T01:30:12.885Z,1.60
2023-03-11T01:40:45.350Z,1.55
2023-03-11T01:51:07.205Z,1.51
2023-03-11T02:01:29.174Z,1.45
2023-03-11T02:11:51.232Z,1.45
2023-03-11T02:22:13.565Z,1.50
2023-03-11T02:32:35.305Z,1.55
2023-03-11T02:42:58.903Z,1.56
2023-03-11T02:53:20.592Z,1.59
2023-03-11T03:03:42.035Z,1.49
2023-03-11T03:14:03.408Z,1.41
2023-03-11T03:24:24.801Z,1.41
2023-03-11T03:34:46.167Z,1.40
2023-03-11T03:45:08.124Z,1.40
2023-03-11T03:55:29.511Z,1.37
2023-03-11T04:05:50.896Z,1.37
2023-03-11T04:16:16.724Z,1.31
2023-03-11T04:26:38.197Z,1.23
2023-03-11T04:36:59.583Z,1.14
2023-03-11T04:47:21.931Z,1.12
2023-03-11T04:57:43.500Z,1.03
2023-03-11T05:08:05.044Z,0.93
2023-03-11T05:18:26.612Z,0.79
2023-03-11T05:28:48.000Z,0.72
2023-03-11T05:39:09.376Z,0.63
2023-03-11T05:49:30.783Z,0.52
2023-03-11T05:59:52.131Z,0.42
2023-03-11T06:10:13.646Z,0.35
2023-03-11T06:20:36.137Z,0.31
2023-03-11T06:31:06.256Z,0.26
2023-03-11T06:41:27.716Z,0.30
2023-03-11T06:51:49.065Z,0.36
2023-03-11T07:02:13.109Z,0.36
2023-03-11T07:12:34.475Z,0.40
2023-03-11T07:22:55.859Z,0.53
2023-03-11T07:33:17.316Z,0.61
2023-03-11T07:43:39.742Z,0.79
2023-03-11T07:54:01.258Z,0.92
2023-03-11T08:04:22.638Z,1.00
2023-03-11T08:14:44.029Z,1.08
2023-03-11T08:25:05.651Z,1.16
2023-03-11T08:35:27.100Z,1.29
2023-03-11T08:45:48.668Z,1.39
2023-03-11T08:56:10.252Z,1.44
2023-03-11T09:06:31.677Z,1.56
2023-03-11T09:16:53.047Z,1.74
2023-03-11T09:27:15.421Z,1.88
2023-03-11T09:37:36.823Z,2.09
2023-03-11T09:48:09.980Z,2.27
2023-03-11T09:58:51.369Z,2.35
2023-03-11T10:09:12.921Z,2.57
2023-03-11T10:19:44.547Z,2.72
2023-03-11T10:30:13.572Z,2.81
2023-03-11T10:40:36.850Z,2.92
2023-03-11T10:51:12.299Z,3.08
2023-03-11T11:01:34.090Z,3.33
2023-03-11T11:12:04.388Z,3.42
2023-03-11T11:22:25.909Z,3.58
2023-03-11T11:32:47.358Z,3.73
2023-03-11T11:43:15.082Z,3.84
2023-03-11T11:53:36.399Z,4.13
2023-03-11T12:04:03.650Z,4.28
2023-03-11T12:14:36.050Z,4.39
2023-03-11T12:25:08.414Z,4.53
2023-03-11T12:35:31.681Z,4.73
2023-03-11T12:45:55.461Z,4.75
2023-03-11T12:56:35.049Z,4.81
2023-03-11T13:07:04.266Z,4.98
2023-03-11T13:17:27.778Z,5.15
2023-03-11T13:27:50.290Z,5.13
2023-03-11T13:38:17.819Z,5.12
2023-03-11T13:48:42.161Z,5.19
2023-03-11T13:59:36.113Z,5.29
2023-03-11T14:10:30.059Z,5.36
2023-03-11T14:20:51.809Z,5.50
2023-03-11T14:31:44.069Z,5.62
2023-03-11T14:42:08.534Z,5.59
2023-03-11T14:52:33.338Z,5.69
2023-03-11T15:03:01.018Z,6.01
2023-03-11T15:13:24.040Z,5.88
2023-03-11T15:23:47.428Z,5.88
2023-03-11T15:34:10.036Z,5.86
2023-03-11T15:44:40.891Z,5.74
2023-03-11T15:55:02.289Z,5.63
2023-03-11T16:05:25.133Z,5.06
2023-03-11T16:15:47.200Z,5.15
2023-03-11T16:26:09.883Z,5.34
2023-03-11T16:36:31.280Z,5.13
2023-03-11T16:46:52.804Z,5.02
2023-03-11T16:57:14.250Z,5.01
2023-03-11T17:07:38.809Z,4.76
2023-03-11T17:18:01.231Z,4.28
2023-03-11T17:28:22.574Z,3.79
2023-03-11T17:38:45.215Z,3.52
2023-03-11T17:49:07.493Z,3.46
2023-03-11T17:59:29.969Z,3.46
2023-03-11T18:09:52.635Z,3.53
2023-03-11T18:20:14.737Z,3.56
2023-03-11T18:30:39.115Z,3.61
2023-03-11T18:41:00.474Z,3.62
2023-03-11T18:51:21.903Z,3.65
2023-03-11T19:01:43.256Z,3.61
2023-03-11T19:12:04.694Z,3.58
2023-03-11T19:22:26.049Z,3.53
2023-03-11T19:32:47.819Z,3.58
2023-03-11T19:43:09.293Z,3.50
2023-03-11T19:53:30.682Z,3.36
2023-03-11T20:03:52.099Z,3.22
2023-03-11T20:14:13.512Z,3.20
2023-03-11T20:24:34.888Z,3.14
2023-03-11T20:34:56.876Z,3.01
2023-03-11T20:45:21.966Z,2.96
2023-03-11T20:55:43.822Z,2.88
2023-03-11T21:06:05.418Z,2.91
2023-03-11T21:16:28.087Z,2.76
2023-03-11T21:26:49.585Z,2.69
2023-03-11T21:37:11.105Z,2.61
2023-03-11T21:47:32.539Z,2.59
2023-03-11T21:57:53.998Z,2.61
2023-03-11T22:08:15.509Z,2.63
2023-03-11T22:18:37.184Z,2.56
2023-03-11T22:28:58.556Z,2.46
2023-03-11T22:39:19.908Z,2.48
2023-03-11T22:49:41.354Z,2.52
2023-03-11T23:00:04.957Z,2.46
2023-03-11T23:10:26.409Z,2.33
2023-03-11T23:20:47.806Z,2.11
2023-03-11T23:31:10.120Z,1.97
2023-03-11T23:41:31.623Z,1.92
2023-03-11T23:51:53.489Z,1.84
